sensor_id;sensor_type;location;lat;lon;timestamp;pressure;altitude;pressure_sealevel;temperature;humidity
71805;BME280;59654;52.216;5.616;2023-06-24T00:00:26;102218.84;;;16.13;88.58
71805;BME280;59654;52.216;5.616;2023-06-24T00:00:57;102213.50;;;16.11;88.70
71805;BME280;59654;52.216;5.616;2023-06-24T00:01:28;102219.78;;;16.12;88.78
71805;BME280;59654;52.216;5.616;2023-06-24T00:01:59;102211.69;;;16.12;88.79
71805;BME280;59654;52.216;5.616;2023-06-24T00:02:29;102209.00;;;16.12;88.92
71805;BME280;59654;52.216;5.616;2023-06-24T00:03:00;102216.22;;;16.11;88.80
71805;BME280;59654;52.216;5.616;2023-06-24T00:03:33;102211.75;;;16.10;88.95
71805;BME280;59654;52.216;5.616;2023-06-24T00:04:07;102213.56;;;16.10;89.22
71805;BME280;59654;52.216;5.616;2023-06-24T00:04:38;102217.16;;;16.10;89.08
71805;BME280;59654;52.216;5.616;2023-06-24T00:05:09;102220.78;;;16.09;89.24
71805;BME280;59654;52.216;5.616;2023-06-24T00:05:40;102219.88;;;16.09;89.43
71805;BME280;59654;52.216;5.616;2023-06-24T00:06:11;102208.25;;;16.08;89.27
71805;BME280;59654;52.216;5.616;2023-06-24T00:06:42;102211.88;;;16.07;88.79
71805;BME280;59654;52.216;5.616;2023-06-24T00:07:12;102210.94;;;16.08;88.85
71805;BME280;59654;52.216;5.616;2023-06-24T00:07:43;102215.34;;;16.11;88.70
71805;BME280;59654;52.216;5.616;2023-06-24T00:08:16;102212.69;;;16.09;88.82
71805;BME280;59654;52.216;5.616;2023-06-24T00:08:49;102215.34;;;16.11;89.31
71805;BME280;59654;52.216;5.616;2023-06-24T00:09:20;102213.56;;;16.10;88.87
71805;BME280;59654;52.216;5.616;2023-06-24T00:09:51;102210.00;;;16.09;88.84
71805;BME280;59654;52.216;5.616;2023-06-24T00:10:22;102211.81;;;16.09;88.67
71805;BME280;59654;52.216;5.616;2023-06-24T00:10:53;102211.81;;;16.09;88.98
71805;BME280;59654;52.216;5.616;2023-06-24T00:11:23;102215.38;;;16.09;89.15
71805;BME280;59654;52.216;5.616;2023-06-24T00:11:57;102219.00;;;16.08;88.80
71805;BME280;59654;52.216;5.616;2023-06-24T00:12:29;102211.88;;;16.07;89.30
71805;BME280;59654;52.216;5.616;2023-06-24T00:12:59;102208.25;;;16.08;89.08
71805;BME280;59654;52.216;5.616;2023-06-24T00:13:33;102210.94;;;16.08;89.01
71805;BME280;59654;52.216;5.616;2023-06-24T00:14:04;102211.88;;;16.07;89.14
71805;BME280;59654;52.216;5.616;2023-06-24T00:14:37;102211.00;;;16.07;89.00
71805;BME280;59654;52.216;5.616;2023-06-24T00:15:08;102217.25;;;16.07;88.68
71805;BME280;59654;52.216;5.616;2023-06-24T00:15:42;102219.06;;;16.07;88.95
71805;BME280;59654;52.216;5.616;2023-06-24T00:16:13;102213.69;;;16.07;89.22
71805;BME280;59654;52.216;5.616;2023-06-24T00:16:44;102215.50;;;16.06;88.86
71805;BME280;59654;52.216;5.616;2023-06-24T00:17:14;102214.63;;;16.06;88.87
71805;BME280;59654;52.216;5.616;2023-06-24T00:17:46;102218.19;;;16.06;88.82
71805;BME280;59654;52.216;5.616;2023-06-24T00:18:19;102220.00;;;16.06;88.74
71805;BME280;59654;52.216;5.616;2023-06-24T00:18:50;102220.06;;;16.04;88.80
71805;BME280;59654;52.216;5.616;2023-06-24T00:19:23;102221.00;;;16.03;89.13
71805;BME280;59654;52.216;5.616;2023-06-24T00:19:55;102221.94;;;16.02;88.97
71805;BME280;59654;52.216;5.616;2023-06-24T00:20:26;102216.59;;;16.01;89.16
71805;BME280;59654;52.216;5.616;2023-06-24T00:20:56;102215.81;;;15.99;89.37
71805;BME280;59654;52.216;5.616;2023-06-24T00:21:27;102221.19;;;15.99;89.41
71805;BME280;59654;52.216;5.616;2023-06-24T00:22:01;102214.06;;;15.98;89.59
71805;BME280;59654;52.216;5.616;2023-06-24T00:22:34;102215.00;;;15.97;89.62
71805;BME280;59654;52.216;5.616;2023-06-24T00:23:05;102218.63;;;15.96;89.58
71805;BME280;59654;52.216;5.616;2023-06-24T00:23:36;102217.69;;;15.97;89.63
71805;BME280;59654;52.216;5.616;2023-06-24T00:24:07;102210.56;;;15.96;89.40
71805;BME280;59654;52.216;5.616;2023-06-24T00:24:40;102221.31;;;15.96;89.65
71805;BME280;59654;52.216;5.616;2023-06-24T00:25:13;102224.00;;;15.96;89.46
71805;BME280;59654;52.216;5.616;2023-06-24T00:25:43;102210.56;;;15.96;89.13
71805;BME280;59654;52.216;5.616;2023-06-24T00:26:14;102214.13;;;15.96;89.06
71805;BME280;59654;52.216;5.616;2023-06-24T00:26:48;102217.81;;;15.94;89.50
71805;BME280;59654;52.216;5.616;2023-06-24T00:27:19;102218.69;;;15.94;88.98
71805;BME280;59654;52.216;5.616;2023-06-24T00:27:50;102218.69;;;15.94;89.56
71805;BME280;59654;52.216;5.616;2023-06-24T00:28:22;102224.13;;;15.93;89.29
71805;BME280;59654;52.216;5.616;2023-06-24T00:28:53;102216.91;;;15.93;89.46
71805;BME280;59654;52.216;5.616;2023-06-24T00:29:24;102231.31;;;15.92;89.64
71805;BME280;59654;52.216;5.616;2023-06-24T00:29:54;102219.66;;;15.92;88.96
71805;BME280;59654;52.216;5.616;2023-06-24T00:30:26;102213.47;;;15.90;89.55
71805;BME280;59654;52.216;5.616;2023-06-24T00:30:57;102217.09;;;15.88;89.18
71805;BME280;59654;52.216;5.616;2023-06-24T00:31:28;102210.84;;;15.88;89.78
71805;BME280;59654;52.216;5.616;2023-06-24T00:31:59;102218.91;;;15.88;89.60
71805;BME280;59654;52.216;5.616;2023-06-24T00:32:30;102216.28;;;15.86;89.21
71805;BME280;59654;52.216;5.616;2023-06-24T00:33:01;102218.97;;;15.86;89.66
71805;BME280;59654;52.216;5.616;2023-06-24T00:33:34;102222.53;;;15.87;90.02
71805;BME280;59654;52.216;5.616;2023-06-24T00:34:07;102226.16;;;15.86;89.73
71805;BME280;59654;52.216;5.616;2023-06-24T00:34:38;102218.97;;;15.86;89.75
71805;BME280;59654;52.216;5.616;2023-06-24T00:35:14;102224.41;;;15.85;89.47
71805;BME280;59654;52.216;5.616;2023-06-24T00:35:46;102224.34;;;15.86;90.29
71805;BME280;59654;52.216;5.616;2023-06-24T00:36:20;102219.84;;;15.87;89.66
71805;BME280;59654;52.216;5.616;2023-06-24T00:36:51;102220.78;;;15.86;90.26
71805;BME280;59654;52.216;5.616;2023-06-24T00:37:23;102218.06;;;15.86;90.41
71805;BME280;59654;52.216;5.616;2023-06-24T00:37:54;102214.50;;;15.85;90.08
71805;BME280;59654;52.216;5.616;2023-06-24T00:38:28;102217.16;;;15.87;90.54
71805;BME280;59654;52.216;5.616;2023-06-24T00:39:02;102210.94;;;15.85;90.44
71805;BME280;59654;52.216;5.616;2023-06-24T00:39:34;102217.16;;;15.87;90.54
71805;BME280;59654;52.216;5.616;2023-06-24T00:40:05;102218.91;;;15.88;90.17
71805;BME280;59654;52.216;5.616;2023-06-24T00:40:41;102219.84;;;15.87;90.48
71805;BME280;59654;52.216;5.616;2023-06-24T00:41:13;102216.28;;;15.86;90.33
71805;BME280;59654;52.216;5.616;2023-06-24T00:41:43;102218.13;;;15.84;90.24
71805;BME280;59654;52.216;5.616;2023-06-24T00:42:14;102219.94;;;15.84;90.04
71805;BME280;59654;52.216;5.616;2023-06-24T00:42:45;102217.41;;;15.81;90.31
71805;BME280;59654;52.216;5.616;2023-06-24T00:43:17;102217.41;;;15.81;89.75
71805;BME280;59654;52.216;5.616;2023-06-24T00:43:47;102222.78;;;15.81;89.58
71805;BME280;59654;52.216;5.616;2023-06-24T00:44:19;102217.41;;;15.81;89.61
71805;BME280;59654;52.216;5.616;2023-06-24T00:44:50;102224.59;;;15.80;89.60
71805;BME280;59654;52.216;5.616;2023-06-24T00:45:24;102220.09;;;15.81;89.86
71805;BME280;59654;52.216;5.616;2023-06-24T00:45:58;102216.53;;;15.80;90.07
71805;BME280;59654;52.216;5.616;2023-06-24T00:46:29;102212.06;;;15.79;89.87
71805;BME280;59654;52.216;5.616;2023-06-24T00:47:04;102219.28;;;15.79;89.80
71805;BME280;59654;52.216;5.616;2023-06-24T00:47:35;102217.47;;;15.79;90.08
71805;BME280;59654;52.216;5.616;2023-06-24T00:48:06;102223.72;;;15.80;89.84
71805;BME280;59654;52.216;5.616;2023-06-24T00:48:37;102225.53;;;15.79;89.78
71805;BME280;59654;52.216;5.616;2023-06-24T00:49:08;102221.91;;;15.80;90.18
71805;BME280;59654;52.216;5.616;2023-06-24T00:49:39;102221.03;;;15.80;90.50
71805;BME280;59654;52.216;5.616;2023-06-24T00:50:10;102217.47;;;15.79;90.48
71805;BME280;59654;52.216;5.616;2023-06-24T00:50:44;102218.34;;;15.80;90.18
71805;BME280;59654;52.216;5.616;2023-06-24T00:51:15;102217.47;;;15.79;89.94
71805;BME280;59654;52.216;5.616;2023-06-24T00:51:46;102213.88;;;15.79;89.70
71805;BME280;59654;52.216;5.616;2023-06-24T00:52:23;102221.06;;;15.78;89.97
71805;BME280;59654;52.216;5.616;2023-06-24T00:52:54;102221.06;;;15.78;90.17
71805;BME280;59654;52.216;5.616;2023-06-24T00:53:26;102213.94;;;15.77;89.29
71805;BME280;59654;52.216;5.616;2023-06-24T00:53:58;102220.19;;;15.78;89.64
71805;BME280;59654;52.216;5.616;2023-06-24T00:54:29;102213.06;;;15.77;89.46
71805;BME280;59654;52.216;5.616;2023-06-24T00:55:01;102216.69;;;15.76;89.67
71805;BME280;59654;52.216;5.616;2023-06-24T00:55:33;102213.13;;;15.75;89.64
71805;BME280;59654;52.216;5.616;2023-06-24T00:56:04;102215.81;;;15.75;89.66
71805;BME280;59654;52.216;5.616;2023-06-24T00:56:36;102215.88;;;15.74;89.88
71805;BME280;59654;52.216;5.616;2023-06-24T00:57:13;102215.00;;;15.73;89.68
71805;BME280;59654;52.216;5.616;2023-06-24T00:57:45;102214.16;;;15.71;89.73
71805;BME280;59654;52.216;5.616;2023-06-24T00:58:21;102222.28;;;15.70;89.64
71805;BME280;59654;52.216;5.616;2023-06-24T00:58:52;102219.66;;;15.68;89.52
71805;BME280;59654;52.216;5.616;2023-06-24T00:59:23;102212.53;;;15.67;89.80
71805;BME280;59654;52.216;5.616;2023-06-24T00:59:56;102217.06;;;15.67;89.59
71805;BME280;59654;52.216;5.616;2023-06-24T01:00:28;102222.47;;;15.65;89.68
71805;BME280;59654;52.216;5.616;2023-06-24T01:01:00;102215.34;;;15.64;89.72
71805;BME280;59654;52.216;5.616;2023-06-24T01:01:35;102216.28;;;15.63;89.83
71805;BME280;59654;52.216;5.616;2023-06-24T01:02:06;102217.22;;;15.62;89.71
71805;BME280;59654;52.216;5.616;2023-06-24T01:02:38;102216.34;;;15.62;89.59
71805;BME280;59654;52.216;5.616;2023-06-24T01:03:10;102219.06;;;15.60;89.79
71805;BME280;59654;52.216;5.616;2023-06-24T01:03:45;102211.94;;;15.59;90.13
71805;BME280;59654;52.216;5.616;2023-06-24T01:04:17;102213.75;;;15.59;90.05
71805;BME280;59654;52.216;5.616;2023-06-24T01:04:48;102222.72;;;15.58;90.53
71805;BME280;59654;52.216;5.616;2023-06-24T01:05:19;102219.16;;;15.57;89.98
71805;BME280;59654;52.216;5.616;2023-06-24T01:05:54;102220.09;;;15.56;90.82
71805;BME280;59654;52.216;5.616;2023-06-24T01:06:27;102219.22;;;15.56;90.28
71805;BME280;59654;52.216;5.616;2023-06-24T01:07:00;102216.56;;;15.54;90.28
71805;BME280;59654;52.216;5.616;2023-06-24T01:07:34;102214.81;;;15.53;90.64
71805;BME280;59654;52.216;5.616;2023-06-24T01:08:07;102209.44;;;15.53;90.81
71805;BME280;59654;52.216;5.616;2023-06-24T01:08:38;102220.13;;;15.54;90.59
71805;BME280;59654;52.216;5.616;2023-06-24T01:09:09;102214.72;;;15.56;90.83
71805;BME280;59654;52.216;5.616;2023-06-24T01:09:41;102217.41;;;15.56;90.54
71805;BME280;59654;52.216;5.616;2023-06-24T01:10:12;102209.34;;;15.56;90.28
71805;BME280;59654;52.216;5.616;2023-06-24T01:10:44;102223.75;;;15.53;89.97
71805;BME280;59654;52.216;5.616;2023-06-24T01:11:16;102219.31;;;15.52;90.13
71805;BME280;59654;52.216;5.616;2023-06-24T01:11:48;102218.44;;;15.52;89.94
71805;BME280;59654;52.216;5.616;2023-06-24T01:12:18;102215.75;;;15.52;90.67
71805;BME280;59654;52.216;5.616;2023-06-24T01:12:49;102208.63;;;15.51;90.25
71805;BME280;59654;52.216;5.616;2023-06-24T01:13:21;102219.38;;;15.51;90.32
71805;BME280;59654;52.216;5.616;2023-06-24T01:13:52;102215.75;;;15.52;90.76
71805;BME280;59654;52.216;5.616;2023-06-24T01:14:23;102212.19;;;15.51;90.88
71805;BME280;59654;52.216;5.616;2023-06-24T01:14:54;102219.31;;;15.52;90.31
71805;BME280;59654;52.216;5.616;2023-06-24T01:15:26;102208.63;;;15.51;90.45
71805;BME280;59654;52.216;5.616;2023-06-24T01:16:05;102210.38;;;15.52;90.10
71805;BME280;59654;52.216;5.616;2023-06-24T01:17:06;102212.19;;;15.51;90.52
71805;BME280;59654;52.216;5.616;2023-06-24T01:18:42;102226.66;;;15.49;90.36
71805;BME280;59654;52.216;5.616;2023-06-24T01:20:38;102217.75;;;15.47;90.05
71805;BME280;59654;52.216;5.616;2023-06-24T01:21:33;102210.72;;;15.43;89.99
71805;BME280;59654;52.216;5.616;2023-06-24T01:27:57;102226.91;;;15.41;89.65
71805;BME280;59654;52.216;5.616;2023-06-24T01:29:52;102225.09;;;15.42;90.23
71805;BME280;59654;52.216;5.616;2023-06-24T01:32:38;102217.97;;;15.41;89.71
71805;BME280;59654;52.216;5.616;2023-06-24T01:33:22;102216.22;;;15.40;89.43
71805;BME280;59654;52.216;5.616;2023-06-24T01:34:58;102206.38;;;15.39;88.97
71805;BME280;59654;52.216;5.616;2023-06-24T01:35:34;102213.56;;;15.38;89.45
71805;BME280;59654;52.216;5.616;2023-06-24T01:36:12;102210.00;;;15.38;89.53
71805;BME280;59654;52.216;5.616;2023-06-24T01:37:00;102205.63;;;15.35;89.52
71805;BME280;59654;52.216;5.616;2023-06-24T01:37:51;102206.56;;;15.34;89.92
71805;BME280;59654;52.216;5.616;2023-06-24T01:38:27;102208.38;;;15.34;89.51
71805;BME280;59654;52.216;5.616;2023-06-24T01:39:05;102207.50;;;15.33;89.97
71805;BME280;59654;52.216;5.616;2023-06-24T01:39:49;102201.25;;;15.33;90.44
71805;BME280;59654;52.216;5.616;2023-06-24T01:40:32;102211.13;;;15.32;90.04
71805;BME280;59654;52.216;5.616;2023-06-24T01:41:11;102207.56;;;15.32;91.09
71805;BME280;59654;52.216;5.616;2023-06-24T01:41:56;102204.03;;;15.30;90.69
71805;BME280;59654;52.216;5.616;2023-06-24T01:42:30;102209.47;;;15.28;90.22
71805;BME280;59654;52.216;5.616;2023-06-24T01:43:04;102200.69;;;15.23;90.50
71805;BME280;59654;52.216;5.616;2023-06-24T01:43:40;102203.47;;;15.20;90.83
71805;BME280;59654;52.216;5.616;2023-06-24T01:44:16;102201.88;;;15.16;90.57
71805;BME280;59654;52.216;5.616;2023-06-24T01:44:50;102194.84;;;15.12;91.14
71805;BME280;59654;52.216;5.616;2023-06-24T01:45:27;102194.94;;;15.09;91.28
71805;BME280;59654;52.216;5.616;2023-06-24T01:46:04;102199.47;;;15.07;90.91
71805;BME280;59654;52.216;5.616;2023-06-24T01:46:36;102196.84;;;15.05;90.88
71805;BME280;59654;52.216;5.616;2023-06-24T01:47:09;102197.72;;;15.06;91.51
71805;BME280;59654;52.216;5.616;2023-06-24T01:47:45;102199.47;;;15.07;90.90
71805;BME280;59654;52.216;5.616;2023-06-24T01:48:27;102195.09;;;15.04;90.78
71805;BME280;59654;52.216;5.616;2023-06-24T01:49:01;102194.25;;;15.02;89.98
71805;BME280;59654;52.216;5.616;2023-06-24T01:49:39;102195.22;;;15.01;90.76
71805;BME280;59654;52.216;5.616;2023-06-24T01:50:12;102196.94;;;15.02;90.41
71805;BME280;59654;52.216;5.616;2023-06-24T01:50:50;102195.22;;;15.01;90.35
71805;BME280;59654;52.216;5.616;2023-06-24T01:51:31;102195.38;;;14.97;90.66
71805;BME280;59654;52.216;5.616;2023-06-24T01:52:05;102189.19;;;14.95;89.99
71805;BME280;59654;52.216;5.616;2023-06-24T01:52:42;102200.03;;;14.92;90.57
71805;BME280;59654;52.216;5.616;2023-06-24T01:53:17;102192.94;;;14.89;90.40
71805;BME280;59654;52.216;5.616;2023-06-24T01:53:57;102197.50;;;14.87;90.25
71805;BME280;59654;52.216;5.616;2023-06-24T01:54:32;102195.81;;;14.85;90.84
71805;BME280;59654;52.216;5.616;2023-06-24T01:55:09;102195.91;;;14.81;90.95
71805;BME280;59654;52.216;5.616;2023-06-24T01:55:43;102193.31;;;14.78;90.66
71805;BME280;59654;52.216;5.616;2023-06-24T01:56:17;102197.81;;;14.78;90.16
71805;BME280;59654;52.216;5.616;2023-06-24T01:56:54;102197.88;;;14.76;90.32
71805;BME280;59654;52.216;5.616;2023-06-24T01:57:27;102198.69;;;14.78;90.26
71805;BME280;59654;52.216;5.616;2023-06-24T01:58:02;102197.81;;;14.78;91.25
71805;BME280;59654;52.216;5.616;2023-06-24T01:58:35;102196.06;;;14.77;90.39
71805;BME280;59654;52.216;5.616;2023-06-24T01:59:09;102192.50;;;14.76;90.76
71805;BME280;59654;52.216;5.616;2023-06-24T01:59:45;102201.47;;;14.75;90.50
71805;BME280;59654;52.216;5.616;2023-06-24T02:00:17;102203.34;;;14.73;90.61
71805;BME280;59654;52.216;5.616;2023-06-24T02:00:57;102193.66;;;14.69;90.44
71805;BME280;59654;52.216;5.616;2023-06-24T02:01:30;102191.00;;;14.68;90.65
71805;BME280;59654;52.216;5.616;2023-06-24T02:02:05;102189.25;;;14.67;90.77
71805;BME280;59654;52.216;5.616;2023-06-24T02:02:39;102194.69;;;14.65;91.19
71805;BME280;59654;52.216;5.616;2023-06-24T02:03:11;102189.38;;;14.62;90.98
71805;BME280;59654;52.216;5.616;2023-06-24T02:03:42;102189.47;;;14.59;90.17
71805;BME280;59654;52.216;5.616;2023-06-24T02:04:16;102202.94;;;14.58;90.90
71805;BME280;59654;52.216;5.616;2023-06-24T02:04:49;102193.16;;;14.55;91.60
71805;BME280;59654;52.216;5.616;2023-06-24T02:05:25;102197.75;;;14.53;91.05
71805;BME280;59654;52.216;5.616;2023-06-24T02:05:57;102202.22;;;14.53;91.00
71805;BME280;59654;52.216;5.616;2023-06-24T02:06:29;102196.03;;;14.51;91.54
71805;BME280;59654;52.216;5.616;2023-06-24T02:07:03;102190.72;;;14.49;91.03
71805;BME280;59654;52.216;5.616;2023-06-24T02:07:36;102195.16;;;14.50;90.94
71805;BME280;59654;52.216;5.616;2023-06-24T02:08:10;102193.34;;;14.51;91.72
71805;BME280;59654;52.216;5.616;2023-06-24T02:08:48;102192.38;;;14.53;91.48
71805;BME280;59654;52.216;5.616;2023-06-24T02:09:22;102194.22;;;14.51;91.53
71805;BME280;59654;52.216;5.616;2023-06-24T02:09:54;102198.59;;;14.54;91.48
71805;BME280;59654;52.216;5.616;2023-06-24T02:10:27;102195.91;;;14.54;91.53
71805;BME280;59654;52.216;5.616;2023-06-24T02:11:00;102195.91;;;14.54;91.27
71805;BME280;59654;52.216;5.616;2023-06-24T02:11:33;102186.06;;;14.54;91.68
71805;BME280;59654;52.216;5.616;2023-06-24T02:12:08;102193.16;;;14.55;91.96
71805;BME280;59654;52.216;5.616;2023-06-24T02:12:42;102194.06;;;14.56;91.08
71805;BME280;59654;52.216;5.616;2023-06-24T02:13:16;102182.38;;;14.57;91.44
71805;BME280;59654;52.216;5.616;2023-06-24T02:13:49;102186.88;;;14.56;91.21
71805;BME280;59654;52.216;5.616;2023-06-24T02:14:22;102185.91;;;14.59;91.19
71805;BME280;59654;52.216;5.616;2023-06-24T02:14:55;102187.63;;;14.61;91.20
71805;BME280;59654;52.216;5.616;2023-06-24T02:15:28;102184.06;;;14.61;90.89
71805;BME280;59654;52.216;5.616;2023-06-24T02:16:01;102193.84;;;14.62;91.42
71805;BME280;59654;52.216;5.616;2023-06-24T02:16:35;102193.91;;;14.60;91.22
71805;BME280;59654;52.216;5.616;2023-06-24T02:17:10;102188.53;;;14.60;91.21
71805;BME280;59654;52.216;5.616;2023-06-24T02:17:42;102184.97;;;14.60;91.62
71805;BME280;59654;52.216;5.616;2023-06-24T02:18:16;102186.78;;;14.59;91.25
71805;BME280;59654;52.216;5.616;2023-06-24T02:18:48;102183.22;;;14.59;90.84
71805;BME280;59654;52.216;5.616;2023-06-24T02:19:20;102192.97;;;14.61;91.59
71805;BME280;59654;52.216;5.616;2023-06-24T02:19:52;102188.53;;;14.60;90.85
71805;BME280;59654;52.216;5.616;2023-06-24T02:20:26;102190.34;;;14.60;90.69
71805;BME280;59654;52.216;5.616;2023-06-24T02:20:59;102194.78;;;14.61;90.49
71805;BME280;59654;52.216;5.616;2023-06-24T02:21:31;102184.06;;;14.61;90.15
71805;BME280;59654;52.216;5.616;2023-06-24T02:22:04;102184.94;;;14.61;89.98
71805;BME280;59654;52.216;5.616;2023-06-24T02:22:40;102188.53;;;14.60;90.75
71805;BME280;59654;52.216;5.616;2023-06-24T02:23:13;102182.28;;;14.60;91.35
71805;BME280;59654;52.216;5.616;2023-06-24T02:23:44;102182.28;;;14.60;90.64
71805;BME280;59654;52.216;5.616;2023-06-24T02:24:15;102185.91;;;14.59;91.49
71805;BME280;59654;52.216;5.616;2023-06-24T02:24:48;102189.47;;;14.59;92.17
71805;BME280;59654;52.216;5.616;2023-06-24T02:25:20;102184.97;;;14.60;91.00
71805;BME280;59654;52.216;5.616;2023-06-24T02:25:51;102185.81;;;14.62;91.59
71805;BME280;59654;52.216;5.616;2023-06-24T02:26:23;102185.81;;;14.62;90.21
71805;BME280;59654;52.216;5.616;2023-06-24T02:26:58;102188.50;;;14.62;90.44
71805;BME280;59654;52.216;5.616;2023-06-24T02:27:29;102182.28;;;14.60;90.58
71805;BME280;59654;52.216;5.616;2023-06-24T02:28:01;102187.63;;;14.61;90.95
71805;BME280;59654;52.216;5.616;2023-06-24T02:28:33;102189.41;;;14.61;90.76
71805;BME280;59654;52.216;5.616;2023-06-24T02:29:10;102189.41;;;14.61;90.84
71805;BME280;59654;52.216;5.616;2023-06-24T02:29:44;102187.66;;;14.60;89.82
71805;BME280;59654;52.216;5.616;2023-06-24T02:30:16;102187.75;;;14.57;90.89
71805;BME280;59654;52.216;5.616;2023-06-24T02:30:49;102185.16;;;14.54;91.43
71805;BME280;59654;52.216;5.616;2023-06-24T02:31:20;102187.00;;;14.53;91.74
71805;BME280;59654;52.216;5.616;2023-06-24T02:31:51;102180.69;;;14.54;91.12
71805;BME280;59654;52.216;5.616;2023-06-24T02:32:24;102190.50;;;14.55;91.01
71805;BME280;59654;52.216;5.616;2023-06-24T02:32:57;102187.75;;;14.57;90.97
71805;BME280;59654;52.216;5.616;2023-06-24T02:33:27;102181.50;;;14.56;91.80
71805;BME280;59654;52.216;5.616;2023-06-24T02:33:58;102192.25;;;14.56;90.65
71805;BME280;59654;52.216;5.616;2023-06-24T02:34:29;102179.66;;;14.58;90.48
71805;BME280;59654;52.216;5.616;2023-06-24T02:35:00;102186.78;;;14.59;90.39
71805;BME280;59654;52.216;5.616;2023-06-24T02:35:32;102186.72;;;14.61;90.38
71805;BME280;59654;52.216;5.616;2023-06-24T02:36:04;102184.06;;;14.61;90.05
71805;BME280;59654;52.216;5.616;2023-06-24T02:36:35;102178.72;;;14.59;89.57
71805;BME280;59654;52.216;5.616;2023-06-24T02:37:06;102180.53;;;14.59;89.89
71805;BME280;59654;52.216;5.616;2023-06-24T02:37:38;102184.16;;;14.58;90.65
71805;BME280;59654;52.216;5.616;2023-06-24T02:38:08;102180.63;;;14.56;89.39
71805;BME280;59654;52.216;5.616;2023-06-24T02:38:40;102185.13;;;14.55;90.29
71805;BME280;59654;52.216;5.616;2023-06-24T02:39:11;102180.69;;;14.54;89.74
71805;BME280;59654;52.216;5.616;2023-06-24T02:39:42;102178.88;;;14.55;90.47
71805;BME280;59654;52.216;5.616;2023-06-24T02:40:14;102174.44;;;14.54;90.09
71805;BME280;59654;52.216;5.616;2023-06-24T02:40:46;102181.63;;;14.53;90.85
71805;BME280;59654;52.216;5.616;2023-06-24T02:41:18;102181.63;;;14.53;91.06
71805;BME280;59654;52.216;5.616;2023-06-24T02:41:49;102178.97;;;14.53;91.50
71805;BME280;59654;52.216;5.616;2023-06-24T02:42:20;102176.28;;;14.53;90.74
71805;BME280;59654;52.216;5.616;2023-06-24T02:42:51;102170.03;;;14.53;90.69
71805;BME280;59654;52.216;5.616;2023-06-24T02:43:21;102174.56;;;14.51;91.02
71805;BME280;59654;52.216;5.616;2023-06-24T02:43:52;102173.63;;;14.52;91.24
71805;BME280;59654;52.216;5.616;2023-06-24T02:44:23;102165.63;;;14.50;90.09
71805;BME280;59654;52.216;5.616;2023-06-24T02:44:56;102173.69;;;14.50;90.50
71805;BME280;59654;52.216;5.616;2023-06-24T02:45:28;102166.56;;;14.49;90.53
71805;BME280;59654;52.216;5.616;2023-06-24T02:46:01;102170.16;;;14.48;90.69
71805;BME280;59654;52.216;5.616;2023-06-24T02:46:36;102171.19;;;14.44;90.80
71805;BME280;59654;52.216;5.616;2023-06-24T02:47:10;102178.38;;;14.43;92.11
71805;BME280;59654;52.216;5.616;2023-06-24T02:47:45;102171.19;;;14.44;91.94
71805;BME280;59654;52.216;5.616;2023-06-24T02:48:20;102168.47;;;14.45;90.72
71805;BME280;59654;52.216;5.616;2023-06-24T02:48:52;102164.91;;;14.45;91.10
71805;BME280;59654;52.216;5.616;2023-06-24T02:49:25;102176.56;;;14.44;90.90
71805;BME280;59654;52.216;5.616;2023-06-24T02:49:58;102173.00;;;14.43;91.17
71805;BME280;59654;52.216;5.616;2023-06-24T02:50:30;102173.00;;;14.43;91.31
71805;BME280;59654;52.216;5.616;2023-06-24T02:51:03;102173.91;;;14.42;91.34
71805;BME280;59654;52.216;5.616;2023-06-24T02:51:38;102169.47;;;14.41;91.50
71805;BME280;59654;52.216;5.616;2023-06-24T02:52:09;102175.72;;;14.42;91.46
71805;BME280;59654;52.216;5.616;2023-06-24T02:52:40;102171.34;;;14.39;91.44
71805;BME280;59654;52.216;5.616;2023-06-24T02:53:15;102171.38;;;14.38;91.66
71805;BME280;59654;52.216;5.616;2023-06-24T02:53:47;102175.88;;;14.37;91.97
71805;BME280;59654;52.216;5.616;2023-06-24T02:54:20;102177.72;;;14.37;90.78
71805;BME280;59654;52.216;5.616;2023-06-24T02:55:14;102176.75;;;14.38;91.11
71805;BME280;59654;52.216;5.616;2023-06-24T02:55:58;102184.81;;;14.38;91.04
71805;BME280;59654;52.216;5.616;2023-06-24T02:56:30;102182.25;;;14.35;91.44
71805;BME280;59654;52.216;5.616;2023-06-24T02:57:02;102176.88;;;14.35;91.34
71805;BME280;59654;52.216;5.616;2023-06-24T02:57:52;102183.13;;;14.35;91.71
71805;BME280;59654;52.216;5.616;2023-06-24T02:58:47;102181.41;;;14.33;91.18
71805;BME280;59654;52.216;5.616;2023-06-24T02:59:26;102178.78;;;14.31;92.76
71805;BME280;59654;52.216;5.616;2023-06-24T02:59:59;102177.00;;;14.30;92.52
71805;BME280;59654;52.216;5.616;2023-06-24T03:00:38;102177.00;;;14.30;91.96
71805;BME280;59654;52.216;5.616;2023-06-24T03:01:10;102180.66;;;14.28;92.21
71805;BME280;59654;52.216;5.616;2023-06-24T03:01:53;102179.78;;;14.27;91.55
71805;BME280;59654;52.216;5.616;2023-06-24T03:02:25;102172.66;;;14.26;91.86
71805;BME280;59654;52.216;5.616;2023-06-24T03:02:57;102171.84;;;14.24;91.27
71805;BME280;59654;52.216;5.616;2023-06-24T03:03:29;102172.75;;;14.23;91.68
71805;BME280;59654;52.216;5.616;2023-06-24T03:04:01;102169.16;;;14.24;92.24
71805;BME280;59654;52.216;5.616;2023-06-24T03:04:33;102170.97;;;14.24;91.02
71805;BME280;59654;52.216;5.616;2023-06-24T03:05:06;102165.63;;;14.22;90.98
71805;BME280;59654;52.216;5.616;2023-06-24T03:05:38;102168.44;;;14.19;90.86
71805;BME280;59654;52.216;5.616;2023-06-24T03:06:10;102169.38;;;14.18;90.49
71805;BME280;59654;52.216;5.616;2023-06-24T03:06:44;102169.41;;;14.17;91.39
71805;BME280;59654;52.216;5.616;2023-06-24T03:07:16;102164.09;;;14.15;90.17
71805;BME280;59654;52.216;5.616;2023-06-24T03:07:52;102160.50;;;14.16;91.70